Time;durP1;ratioP1;P1;durP2;ratioP2;P2;SDS_P1;SDS_P2;PMS_P1;PMS_P2;Temp;Humidity;BMP_temperature;BMP_pressure;BME280_temperature;BME280_humidity;BME280_pressure;Samples;Min_cycle;Max_cycle;Signal;HPM_P1;HPM_P2
2022/10/24 00:01:44;;;;;;;;;2.25;0.75;;;;;;;;5046558;28;45401;-65
2022/10/24 00:04:10;;;;;;;;;2.25;0.00;;;;;;;;5039761;28;45829;-64
2022/10/24 00:06:35;;;;;;;;;1.75;1.00;;;;;;;;5051250;28;45586;-65
2022/10/24 00:09:00;;;;;;;;;1.75;0.00;;;;;;;;5053017;28;45720;-65
2022/10/24 00:11:26;;;;;;;;;1.50;0.00;;;;;;;;5053127;28;45545;-65
2022/10/24 00:13:53;;;;;;;;;2.50;0.50;;;;;;;;5048992;28;45892;-64
2022/10/24 00:16:18;;;;;;;;;0.25;0.25;;;;;;;;5034998;28;46225;-65
2022/10/24 00:18:44;;;;;;;;;2.25;0.00;;;;;;;;5037911;28;45490;-64
2022/10/24 00:21:09;;;;;;;;;2.00;0.00;;;;;;;;5044238;28;45480;-65
2022/10/24 00:23:35;;;;;;;;;1.25;1.25;;;;;;;;5040344;28;45755;-65
2022/10/24 00:26:00;;;;;;;;;4.50;0.00;;;;;;;;5042241;28;45782;-64
2022/10/24 00:28:26;;;;;;;;;0.00;0.00;;;;;;;;5038211;28;46511;-64
2022/10/24 00:30:52;;;;;;;;;4.50;1.50;;;;;;;;5052363;28;45435;-63
2022/10/24 00:33:17;;;;;;;;;4.00;1.00;;;;;;;;5041367;28;46333;-64
2022/10/24 00:35:42;;;;;;;;;0.50;0.00;;;;;;;;5053155;28;45752;-63
2022/10/24 00:38:07;;;;;;;;;0.00;0.00;;;;;;;;5050224;28;45796;-63
2022/10/24 00:40:33;;;;;;;;;1.00;0.00;;;;;;;;5042328;28;46427;-63
2022/10/24 00:42:58;;;;;;;;;0.00;0.00;;;;;;;;5041158;28;45905;-64
2022/10/24 00:45:42;;;;;;;;;1.00;0.75;;;;;;;;5041183;28;46150;-62
2022/10/24 00:48:13;;;;;;;;;2.50;1.50;;;;;;;;5038882;28;45714;-65
2022/10/24 00:50:38;;;;;;;;;1.00;1.00;;;;;;;;5046537;28;45348;-64
2022/10/24 00:53:03;;;;;;;;;1.00;0.00;;;;;;;;5041320;28;45717;-64
2022/10/24 00:55:28;;;;;;;;;1.00;0.75;;;;;;;;5035605;28;47107;-65
2022/10/24 00:57:55;;;;;;;;;2.00;0.75;;;;;;;;5037330;28;45835;-65
2022/10/24 01:00:23;;;;;;;;;0.00;0.00;;;;;;;;5046806;28;45480;-63
2022/10/24 01:02:48;;;;;;;;;0.00;0.00;;;;;;;;5037094;28;46056;-64
2022/10/24 01:05:15;;;;;;;;;0.75;0.00;;;;;;;;5038610;28;47760;-65
2022/10/24 01:07:55;;;;;;;;;3.25;0.00;;;;;;;;5037065;28;45442;-65
2022/10/24 01:10:59;;;;;;;;;0.75;0.50;;;;;;;;5048776;28;45374;-65
2022/10/24 01:13:24;;;;;;;;;1.50;1.00;;;;;;;;4973777;28;47853;-64
2022/10/24 01:15:54;;;;;;;;;0.00;0.00;;;;;;;;4979596;28;45808;-63
2022/10/24 01:18:41;;;;;;;;;1.00;0.00;;;;;;;;5016313;28;45936;-65
2022/10/24 01:21:23;;;;;;;;;2.25;1.00;;;;;;;;5049304;28;45436;-64
2022/10/24 01:23:48;;;;;;;;;3.25;0.50;;;;;;;;5051066;28;45693;-65
2022/10/24 01:26:32;;;;;;;;;0.50;0.00;;;;;;;;5046482;28;46733;-66
2022/10/24 01:28:58;;;;;;;;;0.25;0.25;;;;;;;;5051696;28;45484;-65
2022/10/24 01:31:29;;;;;;;;;1.50;0.00;;;;;;;;5045235;28;45817;-65
2022/10/24 01:33:57;;;;;;;;;0.25;0.00;;;;;;;;5050212;28;45675;-65
2022/10/24 01:36:32;;;;;;;;;1.00;0.00;;;;;;;;5049729;28;46198;-66
2022/10/24 01:38:59;;;;;;;;;3.75;1.25;;;;;;;;5048760;28;45387;-66
2022/10/24 01:41:27;;;;;;;;;2.00;0.00;;;;;;;;5050995;28;45389;-64
2022/10/24 01:43:52;;;;;;;;;3.00;0.00;;;;;;;;5050222;28;45452;-64
2022/10/24 01:46:20;;;;;;;;;2.25;0.75;;;;;;;;5049229;28;45380;-64
2022/10/24 01:48:48;;;;;;;;;0.00;0.00;;;;;;;;5049224;28;45445;-64
2022/10/24 01:51:15;;;;;;;;;0.00;0.00;;;;;;;;5050316;28;45672;-65
2022/10/24 01:53:42;;;;;;;;;0.00;0.00;;;;;;;;5042234;28;45791;-65
2022/10/24 01:56:07;;;;;;;;;1.00;0.00;;;;;;;;5040529;28;46841;-64
2022/10/24 01:58:33;;;;;;;;;1.50;1.50;;;;;;;;5038605;28;45712;-64
2022/10/24 02:01:00;;;;;;;;;1.00;1.00;;;;;;;;5051869;28;45675;-65
2022/10/24 02:03:25;;;;;;;;;0.00;0.00;;;;;;;;5045831;28;45488;-64
2022/10/24 02:05:54;;;;;;;;;1.00;0.75;;;;;;;;5045294;28;45657;-63
2022/10/24 02:08:24;;;;;;;;;1.50;0.00;;;;;;;;5045982;28;45300;-64
2022/10/24 02:10:51;;;;;;;;;1.25;1.00;;;;;;;;5045157;28;45357;-64
2022/10/24 02:13:35;;;;;;;;;1.00;0.00;;;;;;;;5048096;28;45744;-63
2022/10/24 02:16:01;;;;;;;;;2.00;1.00;;;;;;;;5046183;28;46032;-64
2022/10/24 02:18:28;;;;;;;;;0.00;0.00;;;;;;;;5051884;28;45701;-63
2022/10/24 02:20:56;;;;;;;;;1.00;0.00;;;;;;;;5048233;28;45345;-64
2022/10/24 02:23:30;;;;;;;;;0.00;0.00;;;;;;;;5051256;28;45683;-63
2022/10/24 02:25:58;;;;;;;;;0.75;0.75;;;;;;;;5051567;28;46448;-63
2022/10/24 02:28:25;;;;;;;;;1.00;1.00;;;;;;;;5034143;28;45426;-66
2022/10/24 02:30:58;;;;;;;;;0.00;0.00;;;;;;;;5044001;28;45572;-65
2022/10/24 02:33:24;;;;;;;;;0.00;0.00;;;;;;;;5041014;28;46614;-63
2022/10/24 02:35:51;;;;;;;;;1.25;0.00;;;;;;;;5039972;28;45811;-63
2022/10/24 02:38:26;;;;;;;;;1.50;1.50;;;;;;;;5031996;28;45966;-64
2022/10/24 02:40:52;;;;;;;;;4.25;0.00;;;;;;;;5033835;28;45399;-63
2022/10/24 02:43:20;;;;;;;;;2.25;0.75;;;;;;;;5044998;28;45461;-66
2022/10/24 02:45:45;;;;;;;;;1.00;0.33;;;;;;;;5034739;28;45538;-64
2022/10/24 02:48:13;;;;;;;;;0.00;0.00;;;;;;;;5046173;28;45650;-64
2022/10/24 02:50:40;;;;;;;;;2.00;1.00;;;;;;;;5040934;28;45453;-64
2022/10/24 02:53:07;;;;;;;;;1.25;0.25;;;;;;;;5034161;28;47047;-64
2022/10/24 02:55:32;;;;;;;;;2.25;1.00;;;;;;;;5053874;28;46312;-65
2022/10/24 02:57:58;;;;;;;;;1.50;0.25;;;;;;;;5054482;28;45379;-65
2022/10/24 03:00:26;;;;;;;;;1.00;1.00;;;;;;;;5054659;28;45492;-63
2022/10/24 03:02:51;;;;;;;;;2.00;0.75;;;;;;;;5054665;28;45761;-64
2022/10/24 03:05:16;;;;;;;;;1.00;0.50;;;;;;;;5035944;28;45767;-63
2022/10/24 03:07:42;;;;;;;;;1.25;0.25;;;;;;;;5054704;28;45648;-64
2022/10/24 03:10:07;;;;;;;;;1.50;1.50;;;;;;;;5053008;28;45340;-64
2022/10/24 03:12:32;;;;;;;;;2.00;2.00;;;;;;;;5054764;28;45354;-63
2022/10/24 03:14:58;;;;;;;;;2.00;1.33;;;;;;;;5053400;28;46907;-64
2022/10/24 03:17:23;;;;;;;;;1.67;1.00;;;;;;;;5048033;28;45350;-63
2022/10/24 03:19:48;;;;;;;;;0.00;0.00;;;;;;;;5036764;28;45334;-63
2022/10/24 03:22:14;;;;;;;;;0.00;0.00;;;;;;;;5054581;28;45455;-64
2022/10/24 03:24:39;;;;;;;;;2.00;1.00;;;;;;;;5028965;28;47164;-64
2022/10/24 03:27:04;;;;;;;;;1.50;1.00;;;;;;;;5035761;28;45359;-64
2022/10/24 03:29:29;;;;;;;;;2.25;0.75;;;;;;;;5041446;28;45355;-64
2022/10/24 03:31:55;;;;;;;;;2.25;1.25;;;;;;;;5046492;28;46959;-63
2022/10/24 03:34:20;;;;;;;;;0.00;0.00;;;;;;;;5037548;28;45558;-64
2022/10/24 03:36:45;;;;;;;;;5.00;1.00;;;;;;;;5042367;28;45460;-64
2022/10/24 03:39:10;;;;;;;;;0.00;0.00;;;;;;;;5038457;28;45332;-64
2022/10/24 03:41:36;;;;;;;;;4.00;0.75;;;;;;;;5043523;28;45487;-64
2022/10/24 03:44:01;;;;;;;;;0.00;0.00;;;;;;;;5037741;28;48352;-64
2022/10/24 03:46:26;;;;;;;;;2.50;1.50;;;;;;;;5053873;28;45445;-64
2022/10/24 03:48:51;;;;;;;;;2.00;0.00;;;;;;;;5053657;28;45964;-63
2022/10/24 03:51:17;;;;;;;;;0.25;0.25;;;;;;;;5046483;28;45538;-65
2022/10/24 03:53:42;;;;;;;;;4.67;2.33;;;;;;;;5044531;28;45984;-65
2022/10/24 03:56:07;;;;;;;;;7.00;0.00;;;;;;;;5044283;28;45567;-64
2022/10/24 03:58:33;;;;;;;;;2.00;1.00;;;;;;;;5053071;28;45948;-65
2022/10/24 04:00:58;;;;;;;;;2.33;1.00;;;;;;;;5040868;28;45766;-65
2022/10/24 04:03:25;;;;;;;;;2.25;1.00;;;;;;;;5046873;28;45719;-64
2022/10/24 04:05:50;;;;;;;;;3.75;1.00;;;;;;;;5040003;28;45409;-64
2022/10/24 04:08:15;;;;;;;;;2.00;1.00;;;;;;;;5038129;28;45681;-71
2022/10/24 04:10:40;;;;;;;;;3.00;2.00;;;;;;;;5038670;28;45314;-72
2022/10/24 04:13:06;;;;;;;;;2.67;0.00;;;;;;;;5047774;28;46532;-71
2022/10/24 04:15:31;;;;;;;;;6.00;0.00;;;;;;;;5040902;28;45356;-72
2022/10/24 04:17:56;;;;;;;;;3.75;0.00;;;;;;;;5041773;28;45310;-71
2022/10/24 04:20:22;;;;;;;;;4.00;1.33;;;;;;;;5053981;28;45479;-70
2022/10/24 04:22:47;;;;;;;;;3.50;1.00;;;;;;;;5048570;28;45993;-71
2022/10/24 04:25:13;;;;;;;;;3.33;2.00;;;;;;;;5049876;28;45671;-70
2022/10/24 04:27:39;;;;;;;;;3.67;2.00;;;;;;;;5041723;28;45686;-71
2022/10/24 04:30:08;;;;;;;;;2.33;1.00;;;;;;;;5040919;28;45717;-71
2022/10/24 04:32:33;;;;;;;;;1.67;1.00;;;;;;;;5037341;28;45596;-70
2022/10/24 04:34:58;;;;;;;;;4.00;2.00;;;;;;;;5038512;28;45631;-71
2022/10/24 04:37:23;;;;;;;;;1.00;1.00;;;;;;;;5034988;28;45307;-72
2022/10/24 04:39:49;;;;;;;;;2.25;0.50;;;;;;;;5036811;28;45755;-71
2022/10/24 04:42:14;;;;;;;;;3.00;2.67;;;;;;;;5035074;28;45624;-73
2022/10/24 04:44:39;;;;;;;;;4.00;1.67;;;;;;;;5042352;28;45279;-71
2022/10/24 04:47:04;;;;;;;;;2.67;1.33;;;;;;;;5042123;28;45733;-73
2022/10/24 04:49:30;;;;;;;;;5.00;1.67;;;;;;;;5045285;28;45572;-69
2022/10/24 04:51:55;;;;;;;;;1.67;1.67;;;;;;;;5047490;28;45469;-69
2022/10/24 04:54:20;;;;;;;;;2.67;1.33;;;;;;;;5040455;28;45417;-69
2022/10/24 04:56:46;;;;;;;;;4.00;1.00;;;;;;;;5036985;28;45726;-70
2022/10/24 04:59:11;;;;;;;;;3.00;1.33;;;;;;;;5049964;28;45989;-70
2022/10/24 05:01:36;;;;;;;;;3.33;1.00;;;;;;;;5036911;28;46789;-70
2022/10/24 05:04:02;;;;;;;;;3.67;1.33;;;;;;;;5032902;28;45377;-70
2022/10/24 05:06:27;;;;;;;;;8.67;1.00;;;;;;;;5037457;28;45349;-69
2022/10/24 05:08:53;;;;;;;;;3.33;2.00;;;;;;;;5043438;28;45743;-71
2022/10/24 05:11:18;;;;;;;;;7.00;2.00;;;;;;;;5036719;28;45909;-71
2022/10/24 05:13:43;;;;;;;;;1.00;0.25;;;;;;;;5040710;28;45358;-69
2022/10/24 05:16:08;;;;;;;;;4.25;1.00;;;;;;;;5041255;28;45713;-70
2022/10/24 05:18:33;;;;;;;;;4.33;1.00;;;;;;;;5047278;28;45606;-71
2022/10/24 05:20:59;;;;;;;;;1.00;1.00;;;;;;;;5052367;28;46274;-72
2022/10/24 05:23:24;;;;;;;;;3.00;3.00;;;;;;;;5048542;28;45617;-72
2022/10/24 05:25:50;;;;;;;;;1.33;1.00;;;;;;;;5054633;28;45801;-72
2022/10/24 05:28:15;;;;;;;;;2.00;1.00;;;;;;;;5052528;28;45905;-69
2022/10/24 05:30:44;;;;;;;;;3.33;1.00;;;;;;;;5041429;28;46868;-69
2022/10/24 05:33:09;;;;;;;;;4.00;2.00;;;;;;;;5040051;28;45595;-70
2022/10/24 05:35:35;;;;;;;;;2.67;1.67;;;;;;;;5040645;28;45919;-71
2022/10/24 05:38:00;;;;;;;;;2.67;1.00;;;;;;;;5039300;28;45841;-70
2022/10/24 05:40:25;;;;;;;;;5.33;1.67;;;;;;;;5035289;28;45896;-69
2022/10/24 05:42:51;;;;;;;;;5.33;2.33;;;;;;;;5035949;28;45604;-71
2022/10/24 05:45:17;;;;;;;;;3.33;1.67;;;;;;;;5033744;28;45396;-72
2022/10/24 05:47:42;;;;;;;;;3.33;1.67;;;;;;;;5034406;28;45680;-70
2022/10/24 05:50:08;;;;;;;;;2.33;1.00;;;;;;;;5036278;28;46694;-71
2022/10/24 05:52:35;;;;;;;;;3.00;3.00;;;;;;;;5039411;28;45345;-69
2022/10/24 05:55:00;;;;;;;;;0.00;0.00;;;;;;;;5041730;28;45777;-71
2022/10/24 05:57:25;;;;;;;;;3.67;2.67;;;;;;;;5041678;28;45481;-71
2022/10/24 05:59:51;;;;;;;;;1.00;0.67;;;;;;;;5037535;28;45451;-70
2022/10/24 06:02:17;;;;;;;;;4.67;3.00;;;;;;;;5040922;28;45724;-71
2022/10/24 06:04:43;;;;;;;;;3.00;1.00;;;;;;;;5047300;28;46655;-71
2022/10/24 06:07:08;;;;;;;;;2.00;1.00;;;;;;;;5031882;28;45971;-71
2022/10/24 06:09:33;;;;;;;;;4.00;3.00;;;;;;;;5040900;28;45754;-70
2022/10/24 06:11:59;;;;;;;;;2.00;2.00;;;;;;;;5037355;28;45749;-70
2022/10/24 06:14:24;;;;;;;;;3.00;2.00;;;;;;;;5043178;28;46093;-68
2022/10/24 06:16:49;;;;;;;;;2.67;1.00;;;;;;;;5035734;28;45575;-71
2022/10/24 06:19:14;;;;;;;;;6.33;2.33;;;;;;;;5043806;28;46164;-71
2022/10/24 06:21:40;;;;;;;;;3.67;1.00;;;;;;;;5046399;28;45613;-69
2022/10/24 06:24:05;;;;;;;;;1.67;1.67;;;;;;;;5053292;28;45375;-71
2022/10/24 06:26:30;;;;;;;;;4.00;1.00;;;;;;;;5050314;28;45614;-72
2022/10/24 06:28:56;;;;;;;;;2.00;2.00;;;;;;;;5051367;28;46145;-72
2022/10/24 06:31:21;;;;;;;;;4.67;2.00;;;;;;;;5047738;28;45351;-71
2022/10/24 06:33:46;;;;;;;;;4.67;1.00;;;;;;;;5046234;28;45591;-72
2022/10/24 06:36:13;;;;;;;;;3.00;1.00;;;;;;;;5025761;28;45827;-71
2022/10/24 06:38:38;;;;;;;;;2.25;1.75;;;;;;;;5045651;28;47274;-71
2022/10/24 06:41:04;;;;;;;;;3.75;2.00;;;;;;;;5048489;28;45670;-71
2022/10/24 06:43:29;;;;;;;;;2.00;1.00;;;;;;;;5049285;28;45794;-70
2022/10/24 06:45:56;;;;;;;;;7.00;2.33;;;;;;;;5052835;28;45771;-70
2022/10/24 06:48:21;;;;;;;;;3.00;2.00;;;;;;;;5052534;28;46712;-70
2022/10/24 06:50:46;;;;;;;;;4.00;3.00;;;;;;;;5050430;28;45749;-71
2022/10/24 06:53:11;;;;;;;;;2.33;1.00;;;;;;;;5052281;28;45589;-72
2022/10/24 06:55:38;;;;;;;;;4.00;1.00;;;;;;;;5047041;28;45689;-70
2022/10/24 06:58:05;;;;;;;;;4.00;2.00;;;;;;;;5046439;28;45695;-74
2022/10/24 07:00:31;;;;;;;;;2.33;2.33;;;;;;;;5045382;28;45614;-73
2022/10/24 07:02:58;;;;;;;;;4.33;1.00;;;;;;;;5042125;28;45346;-71
2022/10/24 07:05:23;;;;;;;;;2.00;2.00;;;;;;;;5048478;28;46567;-73
2022/10/24 07:07:48;;;;;;;;;4.33;1.33;;;;;;;;5053646;28;45664;-72
2022/10/24 07:10:14;;;;;;;;;5.33;2.00;;;;;;;;5055207;28;45785;-73
2022/10/24 07:12:39;;;;;;;;;7.67;3.00;;;;;;;;5034499;28;45725;-72
2022/10/24 07:15:05;;;;;;;;;5.00;1.00;;;;;;;;5051883;28;45969;-71
2022/10/24 07:17:30;;;;;;;;;3.67;3.00;;;;;;;;5046417;28;45594;-72
2022/10/24 07:19:56;;;;;;;;;1.67;1.00;;;;;;;;5052058;28;45330;-72
2022/10/24 07:22:22;;;;;;;;;2.33;2.00;;;;;;;;5055525;28;45814;-71
2022/10/24 07:24:53;;;;;;;;;7.67;3.00;;;;;;;;5045978;28;45988;-73
2022/10/24 07:27:19;;;;;;;;;0.75;0.00;;;;;;;;5046032;28;46198;-72
2022/10/24 07:29:44;;;;;;;;;3.00;1.00;;;;;;;;5050930;28;45795;-72
2022/10/24 07:32:09;;;;;;;;;2.00;1.00;;;;;;;;5047065;28;45830;-72
2022/10/24 07:34:35;;;;;;;;;3.33;2.00;;;;;;;;5037450;28;45777;-73
2022/10/24 07:37:02;;;;;;;;;1.50;0.75;;;;;;;;5048738;28;45806;-71
2022/10/24 07:39:27;;;;;;;;;1.00;1.00;;;;;;;;5043012;28;45673;-75
2022/10/24 07:41:52;;;;;;;;;2.00;2.00;;;;;;;;5043168;28;45490;-73
2022/10/24 07:44:18;;;;;;;;;2.00;0.00;;;;;;;;5047405;28;45934;-72
2022/10/24 07:46:43;;;;;;;;;6.00;1.67;;;;;;;;5050460;28;45880;-73
2022/10/24 07:49:08;;;;;;;;;0.33;0.00;;;;;;;;5044596;28;46009;-72
2022/10/24 07:51:34;;;;;;;;;2.33;0.33;;;;;;;;5051977;28;45856;-72
2022/10/24 07:53:59;;;;;;;;;4.67;1.00;;;;;;;;5044672;28;45860;-74
2022/10/24 07:56:24;;;;;;;;;1.00;1.00;;;;;;;;5052721;28;47075;-71
2022/10/24 07:58:50;;;;;;;;;5.67;1.00;;;;;;;;5053517;28;45594;-73
2022/10/24 08:01:16;;;;;;;;;5.00;1.00;;;;;;;;5050647;28;45653;-73
2022/10/24 08:03:42;;;;;;;;;2.00;2.00;;;;;;;;5049086;28;45471;-73
2022/10/24 08:06:11;;;;;;;;;2.00;0.25;;;;;;;;5052680;28;45655;-73
2022/10/24 08:08:37;;;;;;;;;4.67;3.00;;;;;;;;5040283;28;45838;-73
2022/10/24 08:11:09;;;;;;;;;4.25;2.00;;;;;;;;5053880;28;45802;-72
2022/10/24 08:13:34;;;;;;;;;3.00;1.50;;;;;;;;5054303;28;45497;-72
2022/10/24 08:15:59;;;;;;;;;6.67;3.67;;;;;;;;5044061;28;45851;-73
2022/10/24 08:18:24;;;;;;;;;2.00;1.00;;;;;;;;5043390;28;45910;-75
2022/10/24 08:20:57;;;;;;;;;3.00;2.00;;;;;;;;5053515;28;45769;-74
2022/10/24 08:23:22;;;;;;;;;4.25;1.50;;;;;;;;5053831;28;45678;-74
2022/10/24 08:25:47;;;;;;;;;3.00;1.75;;;;;;;;5047993;28;45841;-73
2022/10/24 08:28:12;;;;;;;;;1.00;1.00;;;;;;;;5050196;28;46537;-74
2022/10/24 08:30:38;;;;;;;;;3.25;1.00;;;;;;;;5056842;28;45869;-73
2022/10/24 08:33:03;;;;;;;;;2.50;2.50;;;;;;;;5032684;28;45940;-72
2022/10/24 08:35:28;;;;;;;;;2.75;2.00;;;;;;;;5047374;28;46427;-73
2022/10/24 08:37:53;;;;;;;;;3.50;1.00;;;;;;;;5049720;28;45681;-72
2022/10/24 08:40:19;;;;;;;;;2.00;2.00;;;;;;;;5048221;28;45739;-72
2022/10/24 08:42:45;;;;;;;;;2.25;1.50;;;;;;;;5050526;28;45405;-75
2022/10/24 08:45:13;;;;;;;;;4.25;1.25;;;;;;;;5053330;28;47041;-72
2022/10/24 08:47:41;;;;;;;;;2.25;1.25;;;;;;;;5060821;28;45387;-74
2022/10/24 08:50:27;;;;;;;;;4.00;1.25;;;;;;;;5053554;28;45665;-74
2022/10/24 08:53:01;;;;;;;;;3.00;1.00;;;;;;;;5026611;28;45815;-73
2022/10/24 08:55:48;;;;;;;;;8.50;1.25;;;;;;;;5052451;28;45439;-72
2022/10/24 08:58:15;;;;;;;;;6.25;2.25;;;;;;;;5052592;28;45403;-73
2022/10/24 09:00:42;;;;;;;;;4.75;2.00;;;;;;;;5052751;28;45897;-74
2022/10/24 09:03:19;;;;;;;;;3.50;1.00;;;;;;;;5046208;28;46154;-73
2022/10/24 09:05:47;;;;;;;;;2.00;1.50;;;;;;;;5046588;28;46900;-72
2022/10/24 09:08:30;;;;;;;;;3.25;2.25;;;;;;;;5037325;28;45339;-72
2022/10/24 09:10:58;;;;;;;;;2.25;1.00;;;;;;;;5046188;28;45608;-72
2022/10/24 09:13:25;;;;;;;;;2.00;2.00;;;;;;;;5041838;28;45855;-73
2022/10/24 09:15:50;;;;;;;;;4.00;2.00;;;;;;;;5047512;28;48229;-74
2022/10/24 09:18:21;;;;;;;;;4.50;2.50;;;;;;;;5046096;28;45813;-73
2022/10/24 09:20:48;;;;;;;;;1.25;1.25;;;;;;;;5046320;28;45451;-74
2022/10/24 09:23:14;;;;;;;;;3.50;2.25;;;;;;;;5053573;28;45362;-73
2022/10/24 09:25:42;;;;;;;;;3.50;2.75;;;;;;;;5048231;28;46261;-70
2022/10/24 09:28:09;;;;;;;;;2.00;1.75;;;;;;;;5045400;28;45444;-73
2022/10/24 09:30:36;;;;;;;;;1.00;1.00;;;;;;;;5052599;28;45613;-72
2022/10/24 09:33:06;;;;;;;;;3.25;1.25;;;;;;;;5052148;28;45673;-71
2022/10/24 09:35:34;;;;;;;;;1.50;1.50;;;;;;;;5040308;28;45839;-74
2022/10/24 09:38:32;;;;;;;;;2.25;1.00;;;;;;;;5052022;27;45480;-73
2022/10/24 09:41:17;;;;;;;;;4.50;2.00;;;;;;;;5034839;28;45700;-73
2022/10/24 09:43:43;;;;;;;;;2.00;2.00;;;;;;;;5046726;28;45716;-73
2022/10/24 09:46:28;;;;;;;;;3.00;3.00;;;;;;;;5047103;28;46387;-72
2022/10/24 09:49:17;;;;;;;;;3.75;0.75;;;;;;;;5042579;28;45823;-72
2022/10/24 09:51:46;;;;;;;;;3.00;2.00;;;;;;;;5045937;28;45552;-72
2022/10/24 09:54:17;;;;;;;;;2.25;1.00;;;;;;;;5041739;28;45487;-73
2022/10/24 09:56:44;;;;;;;;;4.25;1.00;;;;;;;;5051708;28;45976;-73
2022/10/24 09:59:16;;;;;;;;;4.50;1.00;;;;;;;;5044362;27;45886;-73
2022/10/24 10:01:41;;;;;;;;;0.00;0.00;;;;;;;;5042772;28;45849;-74
2022/10/24 10:04:13;;;;;;;;;2.00;2.00;;;;;;;;5046318;27;46534;-72
2022/10/24 10:06:42;;;;;;;;;4.50;1.00;;;;;;;;5046544;28;45802;-73
2022/10/24 10:09:11;;;;;;;;;2.00;2.00;;;;;;;;5049367;28;45695;-73
2022/10/24 10:11:36;;;;;;;;;0.75;0.75;;;;;;;;5039046;28;45750;-70
2022/10/24 10:14:02;;;;;;;;;5.50;3.00;;;;;;;;5047685;28;46209;-72
2022/10/24 10:16:29;;;;;;;;;3.50;2.50;;;;;;;;5045902;28;45854;-74
2022/10/24 10:19:02;;;;;;;;;6.00;2.00;;;;;;;;5043650;28;45896;-73
2022/10/24 10:21:48;;;;;;;;;6.00;3.25;;;;;;;;5046107;28;45576;-73
2022/10/24 10:24:23;;;;;;;;;3.50;2.75;;;;;;;;5050120;28;45367;-71
2022/10/24 10:26:48;;;;;;;;;1.75;1.75;;;;;;;;5050278;27;45672;-72
2022/10/24 10:29:20;;;;;;;;;4.50;3.25;;;;;;;;5044395;28;45319;-73
2022/10/24 10:31:47;;;;;;;;;4.75;4.75;;;;;;;;5041687;28;45780;-73
2022/10/24 10:34:12;;;;;;;;;9.50;6.00;;;;;;;;5036190;28;45591;-73
2022/10/24 10:36:43;;;;;;;;;14.33;12.00;;;;;;;;5046531;28;45326;-72
2022/10/24 10:39:18;;;;;;;;;9.00;7.33;;;;;;;;5049396;28;45648;-75
2022/10/24 10:41:48;;;;;;;;;72.25;53.75;;;;;;;;5049811;28;45696;-75
2022/10/24 10:44:22;;;;;;;;;43.67;25.33;;;;;;;;5052201;28;45475;-74
2022/10/24 10:46:48;;;;;;;;;65.00;48.33;;;;;;;;5045589;28;46603;-75
2022/10/24 10:49:30;;;;;;;;;56.00;40.33;;;;;;;;5042274;28;45607;-73
2022/10/24 10:51:57;;;;;;;;;62.00;44.00;;;;;;;;5043126;28;45732;-75
2022/10/24 10:54:28;;;;;;;;;70.75;52.00;;;;;;;;5038965;28;45651;-75
2022/10/24 10:56:55;;;;;;;;;63.67;46.00;;;;;;;;5042439;28;45748;-75
2022/10/24 10:59:21;;;;;;;;;56.00;46.67;;;;;;;;5041368;28;45460;-73
2022/10/24 11:01:47;;;;;;;;;42.33;33.33;;;;;;;;5043739;28;45257;-74
2022/10/24 11:04:12;;;;;;;;;50.00;38.33;;;;;;;;5042485;28;45327;-76
2022/10/24 11:06:45;;;;;;;;;36.33;33.00;;;;;;;;5034677;28;47087;-74
2022/10/24 11:09:21;;;;;;;;;24.00;21.33;;;;;;;;5042959;28;45378;-75
2022/10/24 11:11:50;;;;;;;;;48.33;36.33;;;;;;;;5025401;28;45323;-74
2022/10/24 11:14:19;;;;;;;;;21.67;18.33;;;;;;;;5021466;28;45611;-74
2022/10/24 11:16:44;;;;;;;;;21.00;19.00;;;;;;;;5023401;28;45698;-74
2022/10/24 11:19:20;;;;;;;;;25.00;16.33;;;;;;;;5019856;28;45441;-75
2022/10/24 11:21:46;;;;;;;;;21.33;18.00;;;;;;;;5027485;28;45676;-74
2022/10/24 11:24:14;;;;;;;;;27.00;24.00;;;;;;;;5030184;28;45382;-75
2022/10/24 11:26:42;;;;;;;;;11.25;7.25;;;;;;;;5028365;28;46247;-76
2022/10/24 11:29:17;;;;;;;;;15.00;11.67;;;;;;;;5023165;28;45689;-75
2022/10/24 11:31:53;;;;;;;;;10.75;7.00;;;;;;;;5028247;28;45358;-73
2022/10/24 11:34:24;;;;;;;;;10.25;10.00;;;;;;;;5021284;28;45928;-73
2022/10/24 11:37:08;;;;;;;;;10.50;6.50;;;;;;;;5021946;28;46254;-72
2022/10/24 11:39:43;;;;;;;;;5.75;5.25;;;;;;;;5023301;28;45584;-75
2022/10/24 11:42:09;;;;;;;;;6.75;3.75;;;;;;;;5023098;28;45325;-74
2022/10/24 11:44:43;;;;;;;;;3.50;2.50;;;;;;;;5022260;28;45311;-78
2022/10/24 11:47:11;;;;;;;;;3.00;3.00;;;;;;;;5022347;28;46346;-75
2022/10/24 11:49:39;;;;;;;;;5.00;3.50;;;;;;;;5039871;28;45803;-74
2022/10/24 11:52:26;;;;;;;;;7.00;5.50;;;;;;;;5023597;28;45838;-75
2022/10/24 11:55:17;;;;;;;;;5.50;5.00;;;;;;;;5024689;28;45592;-73
2022/10/24 11:57:44;;;;;;;;;6.25;2.75;;;;;;;;5025107;28;45740;-74
2022/10/24 12:00:22;;;;;;;;;4.50;3.75;;;;;;;;5019658;28;45478;-71
2022/10/24 12:02:53;;;;;;;;;2.25;2.25;;;;;;;;5027585;28;45352;-74
2022/10/24 12:05:21;;;;;;;;;4.50;2.75;;;;;;;;5023423;28;45513;-73
2022/10/24 12:08:11;;;;;;;;;4.00;4.00;;;;;;;;5019896;28;45784;-73
2022/10/24 12:10:46;;;;;;;;;3.25;2.00;;;;;;;;5024291;28;45730;-73
2022/10/24 12:13:17;;;;;;;;;5.50;2.50;;;;;;;;5037371;28;45446;-73
2022/10/24 12:15:49;;;;;;;;;5.00;5.00;;;;;;;;5039190;28;45598;-74
2022/10/24 12:18:20;;;;;;;;;5.75;3.25;;;;;;;;5039562;28;45779;-74
2022/10/24 12:20:49;;;;;;;;;4.00;2.75;;;;;;;;5043069;28;45740;-73
2022/10/24 12:23:20;;;;;;;;;2.00;1.50;;;;;;;;5044580;28;45477;-74
2022/10/24 12:25:47;;;;;;;;;4.75;2.00;;;;;;;;5024025;28;46911;-73
2022/10/24 12:28:18;;;;;;;;;1.75;1.75;;;;;;;;5039637;28;46346;-73
2022/10/24 12:31:03;;;;;;;;;1.50;1.50;;;;;;;;5045998;28;45696;-73
2022/10/24 12:33:29;;;;;;;;;4.00;3.25;;;;;;;;5038276;28;45600;-73
2022/10/24 12:35:57;;;;;;;;;1.75;1.75;;;;;;;;5044154;28;45791;-73
2022/10/24 12:38:28;;;;;;;;;2.75;2.75;;;;;;;;5043745;28;45462;-73
2022/10/24 12:40:58;;;;;;;;;2.00;2.00;;;;;;;;5047888;28;45843;-73
2022/10/24 12:43:26;;;;;;;;;2.50;1.25;;;;;;;;5048648;28;45772;-74
2022/10/24 12:45:52;;;;;;;;;2.75;1.75;;;;;;;;5043059;28;45890;-73
2022/10/24 12:48:17;;;;;;;;;3.75;3.00;;;;;;;;5040210;28;46251;-74
2022/10/24 12:50:42;;;;;;;;;3.00;1.25;;;;;;;;5042238;28;45244;-73
2022/10/24 12:53:18;;;;;;;;;3.75;2.75;;;;;;;;5043512;28;45271;-75
2022/10/24 12:55:43;;;;;;;;;1.50;1.50;;;;;;;;5042555;28;45666;-74
2022/10/24 12:58:38;;;;;;;;;2.75;1.25;;;;;;;;5046644;28;45821;-74
2022/10/24 13:01:05;;;;;;;;;3.25;1.50;;;;;;;;5032657;28;45423;-73
2022/10/24 13:03:44;;;;;;;;;3.75;1.75;;;;;;;;5040069;28;45705;-74
2022/10/24 13:06:33;;;;;;;;;2.75;1.00;;;;;;;;5043890;28;45753;-74
2022/10/24 13:09:12;;;;;;;;;1.00;0.00;;;;;;;;5009597;28;45363;-74
2022/10/24 13:11:43;;;;;;;;;1.00;0.75;;;;;;;;5048844;28;45794;-74
2022/10/24 13:14:27;;;;;;;;;3.75;1.00;;;;;;;;5055326;28;45426;-73
2022/10/24 13:16:57;;;;;;;;;3.00;0.25;;;;;;;;5048331;28;45717;-73
2022/10/24 13:19:24;;;;;;;;;0.00;0.00;;;;;;;;5044445;28;46305;-73
2022/10/24 13:21:53;;;;;;;;;4.75;2.25;;;;;;;;5049294;28;45390;-73
2022/10/24 13:24:21;;;;;;;;;1.25;1.25;;;;;;;;5045918;28;45398;-74
2022/10/24 13:26:54;;;;;;;;;1.00;0.00;;;;;;;;5051902;28;45465;-75
2022/10/24 13:29:22;;;;;;;;;2.00;0.75;;;;;;;;5035353;28;46234;-74
2022/10/24 13:31:47;;;;;;;;;3.00;1.50;;;;;;;;5040345;28;45722;-73
2022/10/24 13:34:21;;;;;;;;;7.00;1.25;;;;;;;;5036759;28;45569;-72
2022/10/24 13:36:48;;;;;;;;;2.50;1.00;;;;;;;;5052272;28;45791;-73
2022/10/24 13:39:20;;;;;;;;;2.00;2.00;;;;;;;;5041291;28;45695;-73
2022/10/24 13:41:48;;;;;;;;;4.00;1.00;;;;;;;;5052218;28;45820;-74
2022/10/24 13:44:13;;;;;;;;;1.75;1.00;;;;;;;;5039898;28;45674;-74
2022/10/24 13:46:57;;;;;;;;;3.00;0.00;;;;;;;;5054900;28;45373;-74
2022/10/24 13:49:27;;;;;;;;;0.00;0.00;;;;;;;;5049699;28;46074;-75
2022/10/24 13:51:53;;;;;;;;;0.00;0.00;;;;;;;;5049649;28;45587;-74
2022/10/24 13:54:20;;;;;;;;;1.00;1.00;;;;;;;;5041880;28;45443;-73
2022/10/24 13:56:46;;;;;;;;;0.75;0.75;;;;;;;;5046845;28;45807;-75
2022/10/24 13:59:30;;;;;;;;;2.00;0.00;;;;;;;;5053462;28;47124;-74
2022/10/24 14:01:56;;;;;;;;;2.00;0.00;;;;;;;;5048504;28;45538;-74
2022/10/24 14:04:22;;;;;;;;;0.00;0.00;;;;;;;;5041855;28;45387;-76
2022/10/24 14:06:48;;;;;;;;;0.75;0.00;;;;;;;;5036945;28;45822;-75
2022/10/24 14:09:13;;;;;;;;;0.25;0.25;;;;;;;;5051968;28;45731;-73
2022/10/24 14:11:41;;;;;;;;;1.25;1.00;;;;;;;;5052049;28;45520;-73
2022/10/24 14:14:13;;;;;;;;;0.00;0.00;;;;;;;;5054409;28;45464;-73
2022/10/24 14:16:38;;;;;;;;;1.75;0.50;;;;;;;;5038653;28;45456;-74
2022/10/24 14:19:27;;;;;;;;;2.50;0.00;;;;;;;;5035755;28;46563;-75
2022/10/24 14:21:52;;;;;;;;;0.25;0.00;;;;;;;;5042169;28;45550;-75
2022/10/24 14:24:19;;;;;;;;;4.00;1.00;;;;;;;;5043922;28;45756;-73
2022/10/24 14:26:45;;;;;;;;;0.25;0.00;;;;;;;;5039777;28;45568;-74
2022/10/24 14:29:30;;;;;;;;;4.50;0.75;;;;;;;;5043468;28;46148;-74
2022/10/24 14:32:03;;;;;;;;;3.50;0.00;;;;;;;;5048701;28;45439;-73
2022/10/24 14:34:29;;;;;;;;;3.75;0.75;;;;;;;;5043158;28;45389;-73
2022/10/24 14:36:59;;;;;;;;;1.00;1.00;;;;;;;;5051880;28;45794;-72
2022/10/24 14:39:25;;;;;;;;;1.00;1.00;;;;;;;;5049145;28;47195;-74
2022/10/24 14:41:51;;;;;;;;;0.25;0.25;;;;;;;;5049827;28;45931;-74
2022/10/24 14:44:18;;;;;;;;;2.00;0.75;;;;;;;;5048167;28;45466;-73
2022/10/24 14:46:43;;;;;;;;;2.00;0.50;;;;;;;;5055281;28;45426;-74
2022/10/24 14:49:32;;;;;;;;;0.00;0.00;;;;;;;;5052175;28;46535;-73